createdAt,value
2019-03-20T00:01:07.879Z,-1.46
2019-03-20T00:03:38.127Z,-1.45
2019-03-20T00:06:09.202Z,-1.53
2019-03-20T00:08:40.168Z,-1.53
2019-03-20T00:11:11.099Z,-1.49
2019-03-20T00:13:42.058Z,-1.50
2019-03-20T00:16:13.103Z,-1.56
2019-03-20T00:18:43.975Z,-1.60
2019-03-20T00:21:14.940Z,-1.66
2019-03-20T00:23:46.764Z,-1.64
2019-03-20T00:26:17.875Z,-1.62
2019-03-20T00:28:48.980Z,-1.73
2019-03-20T00:31:20.026Z,-1.79
2019-03-20T00:33:51.107Z,-1.84
2019-03-20T00:36:22.108Z,-1.83
2019-03-20T00:38:53.077Z,-1.83
2019-03-20T00:41:24.121Z,-1.83
2019-03-20T00:43:55.175Z,-1.81
2019-03-20T00:46:26.110Z,-1.78
2019-03-20T00:48:57.022Z,-1.79
2019-03-20T00:51:28.062Z,-1.77
2019-03-20T00:53:59.615Z,-1.76
2019-03-20T00:56:30.614Z,-1.79
2019-03-20T00:59:01.662Z,-1.81
2019-03-20T01:01:32.741Z,-1.83
2019-03-20T01:04:03.764Z,-1.85
2019-03-20T01:06:34.842Z,-1.86
2019-03-20T01:09:07.303Z,-1.89
2019-03-20T01:11:38.226Z,-1.92
2019-03-20T01:14:09.408Z,-1.91
2019-03-20T01:16:40.389Z,-1.94
2019-03-20T01:19:11.335Z,-2.00
2019-03-20T01:21:42.424Z,-2.01
2019-03-20T01:24:13.370Z,-2.01
2019-03-20T01:26:44.433Z,-1.96
2019-03-20T01:29:15.326Z,-2.00
2019-03-20T01:31:46.228Z,-2.00
2019-03-20T01:34:17.223Z,-2.07
2019-03-20T01:36:48.368Z,-2.16
2019-03-20T01:39:19.562Z,-2.15
2019-03-20T01:41:50.840Z,-2.16
2019-03-20T01:44:21.752Z,-2.16
2019-03-20T01:46:52.656Z,-2.13
2019-03-20T01:49:23.588Z,-2.14
2019-03-20T01:51:54.443Z,-2.16
2019-03-20T01:54:25.404Z,-2.22
2019-03-20T01:56:56.390Z,-2.36
2019-03-20T01:59:27.357Z,-2.34
2019-03-20T02:01:58.274Z,-2.28
2019-03-20T02:04:29.249Z,-2.28
2019-03-20T02:07:00.205Z,-2.23
2019-03-20T02:09:31.200Z,-2.22
2019-03-20T02:12:02.229Z,-2.33
2019-03-20T02:14:33.226Z,-2.44
2019-03-20T02:17:04.272Z,-2.53
2019-03-20T02:19:35.230Z,-2.56
2019-03-20T02:22:06.259Z,-2.61
2019-03-20T02:24:37.173Z,-2.67
2019-03-20T02:27:09.015Z,-2.72
2019-03-20T02:29:40.089Z,-2.76
2019-03-20T02:32:11.071Z,-2.68
2019-03-20T02:34:41.976Z,-2.68
2019-03-20T02:37:12.945Z,-2.88
2019-03-20T02:39:44.065Z,-2.92
2019-03-20T02:42:15.099Z,-2.94
2019-03-20T02:44:46.153Z,-2.94
2019-03-20T02:47:17.117Z,-2.95
2019-03-20T02:49:48.356Z,-2.89
2019-03-20T02:52:19.383Z,-2.82
2019-03-20T02:54:50.271Z,-2.76
2019-03-20T02:57:21.279Z,-2.61
2019-03-20T02:59:52.305Z,-2.47
2019-03-20T03:02:23.345Z,-2.38
2019-03-20T03:04:54.233Z,-2.28
2019-03-20T03:07:25.232Z,-2.16
2019-03-20T03:09:56.387Z,-2.09
2019-03-20T03:12:27.371Z,-1.87
2019-03-20T03:14:58.341Z,-1.73
2019-03-20T03:17:29.307Z,-1.66
2019-03-20T03:20:00.381Z,-1.59
2019-03-20T03:22:31.573Z,-1.53
2019-03-20T03:25:02.474Z,-1.50
2019-03-20T03:27:33.389Z,-1.50
2019-03-20T03:30:07.755Z,-1.49
2019-03-20T03:32:38.645Z,-1.49
2019-03-20T03:35:16.188Z,-1.51
2019-03-20T03:37:42.577Z,-1.51
2019-03-20T03:40:15.659Z,-1.54
2019-03-20T03:42:46.840Z,-1.56
2019-03-20T03:45:18.179Z,-1.58
2019-03-20T03:47:49.063Z,-1.58
2019-03-20T03:50:20.070Z,-1.59
2019-03-20T03:52:51.113Z,-1.67
2019-03-20T03:55:22.145Z,-1.73
2019-03-20T03:57:53.247Z,-1.80
2019-03-20T04:00:24.555Z,-1.80
2019-03-20T04:02:55.647Z,-1.76
2019-03-20T04:05:26.775Z,-1.75
2019-03-20T04:07:57.731Z,-1.75
2019-03-20T04:10:28.699Z,-1.76
2019-03-20T04:12:59.738Z,-1.78
2019-03-20T04:15:30.717Z,-1.80
2019-03-20T04:18:01.617Z,-1.87
2019-03-20T04:20:32.690Z,-1.88
2019-03-20T04:23:03.847Z,-1.90
2019-03-20T04:25:34.893Z,-1.95
2019-03-20T04:28:05.925Z,-1.98
2019-03-20T04:30:36.825Z,-2.05
2019-03-20T04:33:07.879Z,-2.13
2019-03-20T04:35:38.836Z,-2.17
2019-03-20T04:38:09.797Z,-2.24
2019-03-20T04:40:40.744Z,-2.29
2019-03-20T04:43:11.740Z,-2.40
2019-03-20T04:45:42.693Z,-2.51
2019-03-20T04:48:13.799Z,-2.57
2019-03-20T04:50:44.719Z,-2.59
2019-03-20T04:53:15.801Z,-2.58
2019-03-20T04:55:46.678Z,-2.52
2019-03-20T04:58:17.895Z,-2.56
2019-03-20T05:00:48.791Z,-2.56
2019-03-20T05:03:19.890Z,-2.56
2019-03-20T05:05:51.225Z,-2.45
2019-03-20T05:08:23.715Z,-2.37
2019-03-20T05:10:54.613Z,-2.28
2019-03-20T05:13:25.528Z,-2.21
2019-03-20T05:15:56.629Z,-2.13
2019-03-20T05:18:27.515Z,-2.03
2019-03-20T05:20:58.407Z,-1.97
2019-03-20T05:23:29.371Z,-1.89
2019-03-20T05:26:00.266Z,-1.82
2019-03-20T05:28:31.176Z,-1.77
2019-03-20T05:31:02.355Z,-1.73
2019-03-20T05:33:33.601Z,-1.70
2019-03-20T05:36:05.079Z,-1.69
2019-03-20T05:38:36.076Z,-1.67
2019-03-20T05:41:06.945Z,-1.66
2019-03-20T05:43:37.911Z,-1.65
2019-03-20T05:46:08.804Z,-1.61
2019-03-20T05:48:40.038Z,-1.59
2019-03-20T05:51:11.108Z,-1.60
2019-03-20T05:53:42.146Z,-1.57
2019-03-20T05:56:21.157Z,-1.56
2019-03-20T05:58:52.204Z,-1.57
2019-03-20T06:01:24.749Z,-1.55
2019-03-20T06:03:55.740Z,-1.52
2019-03-20T06:06:26.779Z,-1.38
2019-03-20T06:08:57.764Z,-1.42
2019-03-20T06:11:30.277Z,-1.40
2019-03-20T06:14:01.575Z,-1.37
2019-03-20T06:16:32.464Z,-1.37
2019-03-20T06:19:03.434Z,-1.38
2019-03-20T06:21:34.508Z,-0.54
2019-03-20T06:24:05.473Z,-0.10
2019-03-20T06:26:36.670Z,0.03
2019-03-20T06:29:07.643Z,0.09
2019-03-20T06:31:38.738Z,0.04
2019-03-20T06:34:09.696Z,-0.10
2019-03-20T06:36:40.666Z,-0.16
2019-03-20T06:39:11.994Z,-0.07
2019-03-20T06:41:43.000Z,0.04
2019-03-20T06:44:13.885Z,0.10
2019-03-20T06:46:44.882Z,0.17
2019-03-20T06:49:15.889Z,0.16
2019-03-20T06:51:46.862Z,0.18
2019-03-20T06:54:17.752Z,0.20
2019-03-20T06:56:48.848Z,0.33
2019-03-20T06:59:28.596Z,0.51
2019-03-20T07:02:01.517Z,0.78
2019-03-20T07:04:47.516Z,0.95
2019-03-20T07:07:24.137Z,1.06
2019-03-20T07:10:00.918Z,1.20
2019-03-20T07:12:31.952Z,1.35
2019-03-20T07:15:03.092Z,1.51
2019-03-20T07:17:34.066Z,1.81
2019-03-20T07:20:08.318Z,2.07
2019-03-20T07:22:39.468Z,2.28
2019-03-20T07:25:10.417Z,2.46
2019-03-20T07:27:41.528Z,2.59
2019-03-20T07:30:13.036Z,2.79
2019-03-20T07:32:43.972Z,2.92
2019-03-20T07:35:14.965Z,3.18
2019-03-20T07:37:55.638Z,3.38
2019-03-20T07:40:18.641Z,3.58
2019-03-20T07:42:49.612Z,3.71
2019-03-20T07:45:20.677Z,4.43
2019-03-20T07:47:51.892Z,4.84
2019-03-20T07:50:22.880Z,4.76
2019-03-20T07:52:53.850Z,4.65
2019-03-20T07:55:24.814Z,4.51
2019-03-20T07:57:55.748Z,4.98
2019-03-20T08:00:26.760Z,5.08
2019-03-20T08:02:57.709Z,5.07
2019-03-20T08:05:29.707Z,5.49
2019-03-20T08:08:07.379Z,6.01
2019-03-20T08:10:33.429Z,6.27
2019-03-20T08:13:04.494Z,5.90
2019-03-20T08:15:36.057Z,6.13
2019-03-20T08:18:07.010Z,7.03
2019-03-20T08:20:37.987Z,6.93
2019-03-20T08:23:08.860Z,7.07
2019-03-20T08:25:39.844Z,7.37
2019-03-20T08:28:10.723Z,8.07
2019-03-20T08:30:41.665Z,8.46
2019-03-20T08:33:12.632Z,8.66
2019-03-20T08:35:43.620Z,9.04
2019-03-20T08:38:18.536Z,8.98
2019-03-20T08:40:47.191Z,9.22
2019-03-20T08:43:18.184Z,9.38
2019-03-20T08:45:49.237Z,9.34
2019-03-20T08:48:20.313Z,9.28
2019-03-20T08:50:51.276Z,9.24
2019-03-20T08:53:22.311Z,9.07
2019-03-20T08:55:53.224Z,9.30
2019-03-20T08:58:24.163Z,9.66
2019-03-20T09:00:55.104Z,9.92
2019-03-20T09:03:26.032Z,10.28
2019-03-20T09:05:57.017Z,11.08
2019-03-20T09:08:29.664Z,11.54
2019-03-20T09:11:00.642Z,11.54
2019-03-20T09:13:33.235Z,11.96
2019-03-20T09:16:04.435Z,12.51
2019-03-20T09:18:35.407Z,12.89
2019-03-20T09:21:06.434Z,13.33
2019-03-20T09:23:37.668Z,13.05
2019-03-20T09:26:08.663Z,12.40
2019-03-20T09:28:39.613Z,12.39
2019-03-20T09:31:10.791Z,12.90
2019-03-20T09:33:41.788Z,13.88
2019-03-20T09:36:13.304Z,12.84
2019-03-20T09:38:44.240Z,13.56
2019-03-20T09:41:15.124Z,14.12
2019-03-20T09:43:46.063Z,14.72
2019-03-20T09:46:16.959Z,15.23
2019-03-20T09:48:47.917Z,15.91
2019-03-20T09:51:19.124Z,15.86
2019-03-20T09:53:50.122Z,16.37
2019-03-20T09:56:21.082Z,15.52
2019-03-20T09:58:52.282Z,16.28
2019-03-20T10:01:23.278Z,16.35
2019-03-20T10:03:54.155Z,16.11
2019-03-20T10:06:25.100Z,15.72
2019-03-20T10:08:56.154Z,15.69
2019-03-20T10:11:27.039Z,15.83
2019-03-20T10:13:57.922Z,15.88
2019-03-20T10:16:28.914Z,15.69
2019-03-20T10:18:59.904Z,16.11
2019-03-20T10:21:31.156Z,15.47
2019-03-20T10:24:02.136Z,15.63
2019-03-20T10:26:33.122Z,15.92
2019-03-20T10:29:04.323Z,15.74
2019-03-20T10:31:35.477Z,15.07
2019-03-20T10:34:06.422Z,15.63
2019-03-20T10:36:37.446Z,16.37
2019-03-20T10:39:08.752Z,15.63
2019-03-20T10:41:39.846Z,14.95
2019-03-20T10:44:10.798Z,15.45
2019-03-20T10:46:41.697Z,16.05
2019-03-20T10:49:12.654Z,16.06
2019-03-20T10:51:44.002Z,16.06
2019-03-20T10:54:16.610Z,16.86
2019-03-20T10:56:47.556Z,18.13
2019-03-20T10:59:18.667Z,18.61
2019-03-20T11:01:50.027Z,19.61
2019-03-20T11:04:20.882Z,19.05
2019-03-20T11:06:51.779Z,19.03
2019-03-20T11:09:22.778Z,19.29
2019-03-20T11:11:53.959Z,19.03
2019-03-20T11:14:24.896Z,18.59
2019-03-20T11:16:55.856Z,16.21
2019-03-20T11:19:26.775Z,17.01
2019-03-20T11:21:57.626Z,17.75
2019-03-20T11:24:28.866Z,17.06
2019-03-20T11:26:59.749Z,17.75
2019-03-20T11:29:30.739Z,18.43
2019-03-20T11:32:01.771Z,18.67
2019-03-20T11:34:32.678Z,19.05
2019-03-20T11:37:05.748Z,16.98
2019-03-20T11:39:36.701Z,17.60
2019-03-20T11:42:07.734Z,16.13
2019-03-20T11:44:38.847Z,16.67
2019-03-20T11:47:09.790Z,18.06
2019-03-20T11:49:40.895Z,19.05
2019-03-20T11:52:11.786Z,19.07
2019-03-20T11:54:42.871Z,19.31
2019-03-20T11:57:13.871Z,19.61
2019-03-20T11:59:44.987Z,17.42
2019-03-20T12:02:27.491Z,17.28
2019-03-20T12:04:48.505Z,18.03
2019-03-20T12:07:19.554Z,18.74
2019-03-20T12:09:50.506Z,19.60
2019-03-20T12:12:21.398Z,20.91
2019-03-20T12:14:52.407Z,21.26
2019-03-20T12:17:23.367Z,20.52
2019-03-20T12:19:54.382Z,19.69
2019-03-20T12:22:25.559Z,19.12
2019-03-20T12:24:56.699Z,18.36
2019-03-20T12:27:27.720Z,18.76
2019-03-20T12:29:58.631Z,18.27
2019-03-20T12:32:50.543Z,17.73
2019-03-20T12:35:22.310Z,17.41
2019-03-20T12:37:53.304Z,17.28
2019-03-20T12:40:25.910Z,17.27
2019-03-20T12:42:57.968Z,17.43
2019-03-20T12:45:31.843Z,17.73
2019-03-20T12:48:03.076Z,18.65
2019-03-20T12:50:34.076Z,20.07
2019-03-20T12:53:10.927Z,20.04
2019-03-20T12:55:41.912Z,21.09
2019-03-20T12:58:33.844Z,20.48
2019-03-20T13:01:05.552Z,20.63
2019-03-20T13:03:36.528Z,21.67
2019-03-20T13:06:07.466Z,21.58
2019-03-20T13:08:38.511Z,20.53
2019-03-20T13:11:09.469Z,19.77
2019-03-20T13:13:40.790Z,19.98
2019-03-20T13:16:11.813Z,20.62
2019-03-20T13:18:43.199Z,21.67
2019-03-20T13:21:14.143Z,21.95
2019-03-20T13:23:45.324Z,22.42
2019-03-20T13:26:16.322Z,22.72
2019-03-20T13:28:47.416Z,22.30
2019-03-20T13:31:21.523Z,21.85
2019-03-20T13:33:52.500Z,21.79
2019-03-20T13:36:23.442Z,21.24
2019-03-20T13:38:56.456Z,20.71
2019-03-20T13:41:27.282Z,19.89
2019-03-20T13:43:58.253Z,19.28
2019-03-20T13:46:29.181Z,19.71
2019-03-20T13:49:00.103Z,19.47
2019-03-20T13:51:31.049Z,19.68
2019-03-20T13:54:02.019Z,20.06
2019-03-20T13:56:33.253Z,19.62
2019-03-20T13:59:04.258Z,17.94
2019-03-20T14:01:35.810Z,17.83
2019-03-20T14:04:06.853Z,20.60
2019-03-20T14:06:37.791Z,20.60
2019-03-20T14:09:08.878Z,19.86
2019-03-20T14:11:39.783Z,20.35
2019-03-20T14:14:10.811Z,19.47
2019-03-20T14:16:41.795Z,19.68
2019-03-20T14:19:12.814Z,20.68
2019-03-20T14:21:44.114Z,20.78
2019-03-20T14:24:15.198Z,20.39
2019-03-20T14:26:46.264Z,20.55
2019-03-20T14:29:17.339Z,20.82
2019-03-20T14:31:48.521Z,20.63
2019-03-20T14:34:19.428Z,20.36
2019-03-20T14:36:50.391Z,20.71
2019-03-20T14:39:21.626Z,19.83
2019-03-20T14:41:52.606Z,19.66
2019-03-20T14:44:23.594Z,20.26
2019-03-20T14:46:54.760Z,21.01
2019-03-20T14:49:25.732Z,21.36
2019-03-20T14:51:57.284Z,21.46
2019-03-20T14:54:28.271Z,20.89
2019-03-20T14:56:59.332Z,20.67
2019-03-20T14:59:30.286Z,20.24
2019-03-20T15:02:01.214Z,19.97
2019-03-20T15:04:32.166Z,20.24
2019-03-20T15:07:03.402Z,20.14
2019-03-20T15:09:34.307Z,20.07
2019-03-20T15:12:05.498Z,18.28
2019-03-20T15:14:36.428Z,18.28
2019-03-20T15:17:07.373Z,17.93
2019-03-20T15:19:38.292Z,17.59
2019-03-20T15:22:09.334Z,17.08
2019-03-20T15:24:40.513Z,16.79
2019-03-20T15:27:11.472Z,17.11
2019-03-20T15:29:42.353Z,16.73
2019-03-20T15:32:13.371Z,17.53
2019-03-20T15:34:44.389Z,17.98
2019-03-20T15:37:15.384Z,18.04
2019-03-20T15:39:56.858Z,18.29
2019-03-20T15:42:27.772Z,18.57
2019-03-20T15:44:58.840Z,18.66
2019-03-20T15:47:29.757Z,18.87
2019-03-20T15:50:00.738Z,19.07
2019-03-20T15:52:31.844Z,18.79
2019-03-20T15:55:03.308Z,18.75
2019-03-20T15:57:34.406Z,18.58
2019-03-20T16:00:08.357Z,18.06
2019-03-20T16:02:39.259Z,18.13
2019-03-20T16:05:10.322Z,18.28
2019-03-20T16:07:41.395Z,18.05
2019-03-20T16:10:23.430Z,18.09
2019-03-20T16:12:54.389Z,17.87
2019-03-20T16:15:25.670Z,17.29
2019-03-20T16:17:56.755Z,17.18
2019-03-20T16:20:27.779Z,17.07
2019-03-20T16:22:58.888Z,17.16
2019-03-20T16:25:30.119Z,16.43
2019-03-20T16:28:07.795Z,15.93
2019-03-20T16:30:38.730Z,15.82
2019-03-20T16:33:09.729Z,15.47
2019-03-20T16:35:40.709Z,15.32
2019-03-20T16:38:11.689Z,15.49
2019-03-20T16:40:42.736Z,15.43
2019-03-20T16:43:13.740Z,15.09
2019-03-20T16:45:47.029Z,15.08
2019-03-20T16:48:18.153Z,14.98
2019-03-20T16:50:49.377Z,14.84
2019-03-20T16:53:20.433Z,14.65
2019-03-20T16:55:51.496Z,14.37
2019-03-20T16:58:22.600Z,14.02
2019-03-20T17:00:53.600Z,13.69
2019-03-20T17:03:24.667Z,13.51
2019-03-20T17:05:55.822Z,12.94
2019-03-20T17:08:26.780Z,12.51
2019-03-20T17:10:57.962Z,12.24
2019-03-20T17:13:29.492Z,11.87
2019-03-20T17:16:01.281Z,11.38
2019-03-20T17:18:32.365Z,11.05
2019-03-20T17:21:04.153Z,10.76
2019-03-20T17:23:35.451Z,10.46
2019-03-20T17:26:06.524Z,10.18
2019-03-20T17:28:37.501Z,9.94
2019-03-20T17:31:08.384Z,9.76
2019-03-20T17:33:39.270Z,9.63
2019-03-20T17:36:10.155Z,9.46
2019-03-20T17:38:41.113Z,9.35
2019-03-20T17:41:12.025Z,9.19
2019-03-20T17:43:43.079Z,9.03
2019-03-20T17:46:14.102Z,8.98
2019-03-20T17:48:45.065Z,8.90
2019-03-20T17:51:17.400Z,8.76
2019-03-20T17:53:48.583Z,8.69
2019-03-20T17:56:19.518Z,8.62
2019-03-20T17:58:52.013Z,8.51
2019-03-20T18:01:23.325Z,8.39
2019-03-20T18:03:54.669Z,8.27
2019-03-20T18:06:25.714Z,8.22
2019-03-20T18:08:58.032Z,8.21
2019-03-20T18:11:29.734Z,8.08
2019-03-20T18:14:00.911Z,8.03
2019-03-20T18:16:56.469Z,7.92
2019-03-20T18:19:30.707Z,7.90
2019-03-20T18:22:01.777Z,7.76
2019-03-20T18:24:35.013Z,7.62
2019-03-20T18:27:06.703Z,7.57
2019-03-20T18:29:37.681Z,7.50
2019-03-20T18:32:08.720Z,7.41
2019-03-20T18:34:40.527Z,7.36
2019-03-20T18:37:14.637Z,7.31
2019-03-20T18:40:05.731Z,7.31
2019-03-20T18:42:42.355Z,7.34
2019-03-20T18:45:16.226Z,7.37
2019-03-20T18:47:47.315Z,7.35
2019-03-20T18:50:19.737Z,7.28
2019-03-20T18:52:51.258Z,7.18
2019-03-20T18:55:22.708Z,7.15
2019-03-20T18:57:53.876Z,7.13
2019-03-20T19:00:27.180Z,7.05
2019-03-20T19:03:18.831Z,6.91
2019-03-20T19:05:55.543Z,6.75
2019-03-20T19:08:28.687Z,6.48
2019-03-20T19:11:00.237Z,6.30
2019-03-20T19:13:33.829Z,6.09
2019-03-20T19:16:06.305Z,5.94
2019-03-20T19:18:37.376Z,5.78
2019-03-20T19:21:08.685Z,5.66
2019-03-20T19:23:40.185Z,5.54
2019-03-20T19:29:10.968Z,5.33
2019-03-20T19:31:42.420Z,5.21
2019-03-20T19:34:13.582Z,5.11
2019-03-20T19:36:46.204Z,5.02
2019-03-20T19:39:17.784Z,4.90
2019-03-20T19:41:53.964Z,4.79
2019-03-20T19:44:25.263Z,4.76
2019-03-20T19:46:58.554Z,4.72
2019-03-20T19:49:32.821Z,4.65
2019-03-20T19:52:04.028Z,4.57
2019-03-20T19:54:35.024Z,4.47
2019-03-20T19:57:06.072Z,4.38
2019-03-20T19:59:37.215Z,4.32
2019-03-20T20:02:08.457Z,4.30
2019-03-20T20:04:39.473Z,4.27
2019-03-20T20:07:13.185Z,4.25
2019-03-20T20:09:45.530Z,4.11
2019-03-20T20:12:19.023Z,4.04
2019-03-20T20:14:49.681Z,4.00
2019-03-20T20:17:20.722Z,3.94
2019-03-20T20:19:53.555Z,3.88
2019-03-20T20:22:24.497Z,3.80
2019-03-20T20:24:55.801Z,3.73
2019-03-20T20:27:26.732Z,3.70
2019-03-20T20:29:59.699Z,3.67
2019-03-20T20:32:31.072Z,3.65
2019-03-20T20:35:02.061Z,3.50
2019-03-20T20:37:32.995Z,3.40
2019-03-20T20:40:14.196Z,3.29
2019-03-20T20:42:47.383Z,3.19
2019-03-20T20:45:18.283Z,3.12
2019-03-20T20:47:50.921Z,3.12
2019-03-20T20:50:25.044Z,3.08
2019-03-20T20:52:56.258Z,2.99
2019-03-20T20:55:30.608Z,2.98
2019-03-20T20:58:01.687Z,2.95
2019-03-20T21:00:32.691Z,2.84
2019-03-20T21:03:03.804Z,2.75
2019-03-20T21:05:34.878Z,2.71
2019-03-20T21:08:05.814Z,2.74
2019-03-20T21:10:36.718Z,2.73
2019-03-20T21:13:07.858Z,2.72
2019-03-20T21:15:40.751Z,2.70
2019-03-20T21:18:17.617Z,2.71
2019-03-20T21:20:49.114Z,2.69
2019-03-20T21:23:40.378Z,2.63
2019-03-20T21:26:14.960Z,2.66
2019-03-20T21:29:11.697Z,2.58
2019-03-20T21:31:57.704Z,2.60
2019-03-20T21:34:51.014Z,2.62
2019-03-20T21:37:34.004Z,2.57
2019-03-20T21:40:08.128Z,2.40
2019-03-20T21:43:06.764Z,2.30
2019-03-20T21:45:58.245Z,2.20
2019-03-20T21:48:29.363Z,2.09
2019-03-20T21:51:03.319Z,2.01
2019-03-20T21:53:52.223Z,1.94
2019-03-20T21:56:31.950Z,1.85
2019-03-20T21:59:17.575Z,1.77
2019-03-20T22:02:07.003Z,1.72
2019-03-20T22:04:37.966Z,1.63
2019-03-20T22:07:12.643Z,1.56
2019-03-20T22:09:55.590Z,1.49
2019-03-20T22:12:41.381Z,1.45
2019-03-20T22:15:30.493Z,1.36
2019-03-20T22:18:19.737Z,1.27
2019-03-20T22:20:53.701Z,1.22
2019-03-20T22:23:53.315Z,1.24
2019-03-20T22:27:00.725Z,1.29
2019-03-20T22:29:31.616Z,1.28
2019-03-20T22:32:20.444Z,1.24
2019-03-20T22:34:59.939Z,1.16
2019-03-20T22:37:30.851Z,1.12
2019-03-20T22:40:16.987Z,1.29
2019-03-20T22:43:08.673Z,1.25
2019-03-20T22:46:00.237Z,1.13
2019-03-20T22:49:11.411Z,1.03
2019-03-20T22:51:57.632Z,0.97
2019-03-20T22:54:54.251Z,0.91
2019-03-20T22:57:40.044Z,0.89
2019-03-20T23:00:11.463Z,0.78
2019-03-20T23:02:57.798Z,0.66
2019-03-20T23:05:28.893Z,0.59
2019-03-20T23:08:00.086Z,0.54
2019-03-20T23:10:31.181Z,0.47
2019-03-20T23:13:02.081Z,0.45
2019-03-20T23:15:33.025Z,0.43
2019-03-20T23:18:04.163Z,0.42
2019-03-20T23:20:35.148Z,0.39
2019-03-20T23:23:06.053Z,0.44
2019-03-20T23:25:36.964Z,0.36
2019-03-20T23:28:07.951Z,0.27
2019-03-20T23:30:38.984Z,0.22
2019-03-20T23:33:09.872Z,0.20
2019-03-20T23:35:40.974Z,0.21
2019-03-20T23:38:11.854Z,0.25
2019-03-20T23:40:43.064Z,0.24
2019-03-20T23:43:14.376Z,0.20
2019-03-20T23:45:45.337Z,0.12
2019-03-20T23:48:53.110Z,0.11
2019-03-20T23:51:26.779Z,0.07
2019-03-20T23:53:58.526Z,-0.02
2019-03-20T23:56:32.648Z,-0.05
2019-03-20T23:59:04.276Z,0.02
